createdAt,value
2023-06-26T00:01:41.693Z,10.25
2023-06-26T00:04:08.647Z,8.35
2023-06-26T00:06:35.566Z,9.85
2023-06-26T00:09:02.512Z,8.95
2023-06-26T00:11:31.897Z,11.95
2023-06-26T00:13:58.780Z,10.35
2023-06-26T00:16:25.491Z,10.48
2023-06-26T00:18:52.210Z,11.45
2023-06-26T00:21:19.969Z,11.02
2023-06-26T00:23:47.105Z,11.38
2023-06-26T00:26:13.845Z,9.85
2023-06-26T00:28:40.610Z,9.30
2023-06-26T00:31:07.394Z,11.43
2023-06-26T00:33:34.149Z,10.32
2023-06-26T00:36:00.924Z,11.40
2023-06-26T00:38:27.673Z,10.18
2023-06-26T00:40:56.758Z,9.45
2023-06-26T00:43:23.566Z,10.73
2023-06-26T00:45:50.433Z,10.48
2023-06-26T00:48:17.432Z,11.85
2023-06-26T00:50:45.658Z,9.30
2023-06-26T00:53:12.745Z,10.88
2023-06-26T00:55:39.918Z,10.82
2023-06-26T00:58:06.804Z,10.05
2023-06-26T01:00:33.587Z,12.48
2023-06-26T01:03:01.067Z,8.90
2023-06-26T01:05:30.562Z,10.68
2023-06-26T01:07:59.354Z,10.15
2023-06-26T01:10:28.784Z,9.32
2023-06-26T01:12:55.845Z,10.93
2023-06-26T01:15:22.984Z,11.60
2023-06-26T01:17:53.158Z,9.68
2023-06-26T01:20:20.830Z,11.60
2023-06-26T01:23:27.189Z,11.20
2023-06-26T01:26:08.979Z,11.23
2023-06-26T01:28:38.661Z,10.75
2023-06-26T01:31:06.363Z,11.40
2023-06-26T01:33:33.732Z,11.07
2023-06-26T01:38:28.366Z,11.52
2023-06-26T01:40:58.047Z,17.33
2023-06-26T01:43:57.098Z,12.27
2023-06-26T01:46:28.674Z,11.80
2023-06-26T01:49:07.781Z,11.05
2023-06-26T01:51:42.291Z,12.63
2023-06-26T01:54:12.486Z,10.82
2023-06-26T01:56:40.330Z,11.38
2023-06-26T01:59:08.197Z,9.68
2023-06-26T02:01:35.726Z,11.45
2023-06-26T02:04:02.533Z,11.48
2023-06-26T02:06:31.326Z,13.25
2023-06-26T02:08:59.730Z,11.80
2023-06-26T02:11:26.452Z,11.45
2023-06-26T02:13:53.198Z,12.80
2023-06-26T02:16:20.194Z,13.45
2023-06-26T02:18:46.916Z,11.30
2023-06-26T02:21:14.661Z,13.88
2023-06-26T02:23:41.499Z,10.93
2023-06-26T02:26:08.240Z,12.25
2023-06-26T02:28:35.696Z,10.43
2023-06-26T02:33:29.291Z,10.95
2023-06-26T02:35:56.117Z,13.55
2023-06-26T02:38:22.838Z,11.75
2023-06-26T02:40:49.626Z,11.57
2023-06-26T02:43:17.412Z,12.00
2023-06-26T02:45:45.151Z,11.98
2023-06-26T02:48:11.924Z,11.90
2023-06-26T02:50:39.123Z,10.05
2023-06-26T02:53:13.940Z,13.23
2023-06-26T02:55:43.963Z,11.02
2023-06-26T02:58:11.053Z,11.35
2023-06-26T03:00:42.303Z,10.13
2023-06-26T03:03:11.269Z,13.27
2023-06-26T03:05:38.115Z,11.45
2023-06-26T03:08:05.332Z,14.60
2023-06-26T03:10:33.120Z,11.77
2023-06-26T03:16:45.825Z,12.57
2023-06-26T03:20:14.647Z,10.77
2023-06-26T03:22:48.255Z,10.38
2023-06-26T03:25:17.119Z,12.25
2023-06-26T03:27:43.885Z,13.70
2023-06-26T03:30:12.160Z,9.38
2023-06-26T03:32:41.225Z,11.00
2023-06-26T03:35:08.749Z,12.13
2023-06-26T03:40:02.436Z,12.40
2023-06-26T03:42:29.555Z,15.20
2023-06-26T03:44:56.307Z,12.38
2023-06-26T03:47:23.101Z,13.27
2023-06-26T03:49:49.897Z,16.88
2023-06-26T03:52:16.902Z,14.55
2023-06-26T03:54:43.774Z,12.25
2023-06-26T03:57:11.479Z,13.35
2023-06-26T03:59:38.368Z,11.23
2023-06-26T04:02:05.354Z,23.48
2023-06-26T04:04:32.246Z,11.77
2023-06-26T04:07:00.479Z,13.15
2023-06-26T04:09:27.499Z,12.30
2023-06-26T04:11:54.341Z,13.50
2023-06-26T04:14:21.192Z,12.95
2023-06-26T04:16:47.944Z,12.23
2023-06-26T04:19:14.762Z,13.15
2023-06-26T04:21:41.558Z,11.75
2023-06-26T04:24:08.403Z,12.57
2023-06-26T04:26:35.369Z,12.13
2023-06-26T04:29:02.187Z,14.05
2023-06-26T04:31:29.200Z,15.40
2023-06-26T04:33:56.219Z,12.93
2023-06-26T04:36:23.037Z,11.95
2023-06-26T04:38:50.360Z,18.77
2023-06-26T04:43:43.802Z,13.15
2023-06-26T04:46:10.540Z,15.88
2023-06-26T04:48:37.411Z,12.13
2023-06-26T04:51:04.266Z,14.63
2023-06-26T04:53:31.009Z,14.30
2023-06-26T04:55:57.856Z,14.65
2023-06-26T04:58:24.598Z,21.13
2023-06-26T05:00:51.501Z,16.00
2023-06-26T05:03:18.920Z,15.77
2023-06-26T05:05:46.671Z,12.93
2023-06-26T05:08:23.969Z,13.38
2023-06-26T05:10:50.920Z,14.45
2023-06-26T05:13:20.185Z,13.85
2023-06-26T05:15:47.992Z,14.63
2023-06-26T05:18:14.773Z,14.88
2023-06-26T05:20:42.229Z,12.40
2023-06-26T05:25:36.391Z,15.13
2023-06-26T05:28:06.004Z,17.55
2023-06-26T05:30:35.541Z,13.95
2023-06-26T05:33:03.779Z,14.27
2023-06-26T05:35:31.555Z,14.38
2023-06-26T05:38:00.291Z,15.43
2023-06-26T05:40:27.515Z,15.43
2023-06-26T05:42:54.581Z,16.30
2023-06-26T05:45:21.395Z,14.20
2023-06-26T05:47:48.965Z,17.77
2023-06-26T05:50:16.298Z,14.55
2023-06-26T05:52:45.070Z,17.83
2023-06-26T05:55:13.645Z,13.38
2023-06-26T05:57:42.333Z,14.40
2023-06-26T06:00:11.840Z,16.52
2023-06-26T06:02:43.924Z,12.60
2023-06-26T06:05:10.763Z,12.15
2023-06-26T06:07:38.049Z,14.13
2023-06-26T06:12:31.836Z,14.65
2023-06-26T06:14:58.661Z,17.33
2023-06-26T06:17:25.456Z,16.05
2023-06-26T06:19:52.313Z,15.05
2023-06-26T06:22:19.093Z,17.27
2023-06-26T06:24:46.078Z,18.08
2023-06-26T06:27:12.887Z,13.52
2023-06-26T06:29:39.679Z,13.25
2023-06-26T06:32:07.086Z,16.00
2023-06-26T06:34:33.872Z,15.77
2023-06-26T06:37:00.697Z,14.65
2023-06-26T06:39:27.675Z,15.82
2023-06-26T06:41:54.421Z,11.60
2023-06-26T06:44:22.475Z,17.33
2023-06-26T06:46:49.435Z,13.93
2023-06-26T06:49:16.202Z,13.45
2023-06-26T06:51:42.975Z,13.45
2023-06-26T06:54:09.791Z,15.23
2023-06-26T06:56:36.566Z,13.95
2023-06-26T06:59:03.309Z,14.02
2023-06-26T07:01:30.141Z,14.70
2023-06-26T07:03:56.976Z,16.73
2023-06-26T07:06:23.718Z,14.70
2023-06-26T07:08:50.993Z,14.45
2023-06-26T07:13:46.916Z,13.65
2023-06-26T07:16:16.008Z,16.40
2023-06-26T07:18:43.225Z,15.77
2023-06-26T07:23:36.660Z,19.05
2023-06-26T07:26:03.451Z,11.98
2023-06-26T07:28:30.211Z,14.43
2023-06-26T07:30:56.940Z,13.98
2023-06-26T07:33:23.699Z,11.63
2023-06-26T07:35:50.440Z,14.00
2023-06-26T07:38:17.269Z,12.95
2023-06-26T07:40:44.034Z,15.40
2023-06-26T07:43:10.783Z,12.43
2023-06-26T07:45:37.490Z,15.65
2023-06-26T07:48:04.600Z,15.35
2023-06-26T07:50:31.346Z,15.23
2023-06-26T07:52:58.115Z,13.70
2023-06-26T07:55:25.117Z,13.77
2023-06-26T07:57:53.240Z,12.60
2023-06-26T08:00:20.122Z,14.70
2023-06-26T08:02:46.903Z,15.50
2023-06-26T08:05:13.766Z,11.32
2023-06-26T08:07:40.578Z,17.15
2023-06-26T08:10:07.545Z,17.00
2023-06-26T08:12:35.047Z,11.93
2023-06-26T08:15:03.887Z,13.48
2023-06-26T08:17:30.823Z,12.50
2023-06-26T08:19:57.696Z,12.88
2023-06-26T08:22:25.057Z,12.80
2023-06-26T08:24:51.788Z,12.82
2023-06-26T08:27:18.530Z,12.32
2023-06-26T08:29:45.251Z,11.98
2023-06-26T08:32:11.976Z,12.43
2023-06-26T08:34:38.678Z,13.82
2023-06-26T08:37:05.735Z,14.85
2023-06-26T08:39:33.760Z,12.82
2023-06-26T08:42:00.552Z,14.45
2023-06-26T08:44:27.444Z,14.07
2023-06-26T08:46:54.211Z,14.90
2023-06-26T08:49:42.426Z,15.80
2023-06-26T08:52:18.726Z,11.55
2023-06-26T08:54:49.224Z,12.88
2023-06-26T08:57:19.543Z,13.77
2023-06-26T08:59:47.871Z,12.90
2023-06-26T09:02:15.149Z,15.32
2023-06-26T09:04:42.726Z,13.43
2023-06-26T09:07:10.126Z,14.55
2023-06-26T09:09:37.301Z,12.73
2023-06-26T09:12:04.610Z,12.70
2023-06-26T09:14:31.389Z,13.40
2023-06-26T09:16:58.260Z,13.73
2023-06-26T09:21:52.700Z,11.73
2023-06-26T09:24:19.699Z,15.98
2023-06-26T09:29:14.880Z,13.02
2023-06-26T09:31:42.968Z,11.25
2023-06-26T09:34:10.614Z,11.50
2023-06-26T09:36:40.034Z,13.85
2023-06-26T09:39:11.584Z,17.42
2023-06-26T09:41:39.348Z,11.98
2023-06-26T09:44:07.281Z,12.10
2023-06-26T09:46:34.405Z,10.93
2023-06-26T09:49:05.285Z,12.65
2023-06-26T09:51:36.684Z,11.98
2023-06-26T09:54:05.317Z,13.05
2023-06-26T09:56:33.463Z,10.38
2023-06-26T09:59:02.577Z,11.32
2023-06-26T10:01:29.921Z,11.35
2023-06-26T10:04:01.412Z,11.85
2023-06-26T10:06:34.494Z,10.55
2023-06-26T10:09:02.359Z,13.73
2023-06-26T10:11:55.887Z,11.23
2023-06-26T10:14:23.931Z,12.05
2023-06-26T10:16:51.924Z,13.43
2023-06-26T10:19:25.155Z,10.95
2023-06-26T10:21:54.390Z,10.45
2023-06-26T10:24:23.342Z,9.57
2023-06-26T10:26:53.346Z,9.35
2023-06-26T10:29:23.175Z,11.00
2023-06-26T10:31:53.806Z,8.95
2023-06-26T10:34:21.432Z,8.07
2023-06-26T10:36:49.195Z,11.15
2023-06-26T10:39:15.935Z,10.95
2023-06-26T10:41:52.894Z,10.60
2023-06-26T10:44:44.977Z,10.02
2023-06-26T10:47:13.017Z,8.43
2023-06-26T10:49:43.371Z,12.32
2023-06-26T10:52:10.347Z,10.73
2023-06-26T10:54:38.584Z,8.52
2023-06-26T10:57:08.406Z,8.93
2023-06-26T10:59:35.387Z,9.02
2023-06-26T11:02:11.691Z,8.88
2023-06-26T11:04:50.811Z,9.03
2023-06-26T11:07:22.465Z,10.02
2023-06-26T11:10:00.773Z,9.82
2023-06-26T11:12:41.225Z,10.02
2023-06-26T11:15:14.667Z,8.73
2023-06-26T11:17:45.917Z,10.80
2023-06-26T11:20:14.863Z,7.88
2023-06-26T11:22:43.042Z,9.02
2023-06-26T11:25:11.655Z,7.50
2023-06-26T11:27:45.085Z,9.95
2023-06-26T11:30:23.299Z,8.68
2023-06-26T11:32:50.108Z,7.72
2023-06-26T11:35:31.253Z,7.70
2023-06-26T11:38:03.927Z,8.00
2023-06-26T11:40:36.753Z,7.18
2023-06-26T11:43:04.662Z,9.77
2023-06-26T11:45:33.107Z,7.32
2023-06-26T11:48:01.100Z,6.93
2023-06-26T11:50:28.641Z,7.53
2023-06-26T11:52:59.997Z,6.07
2023-06-26T11:55:27.229Z,5.95
2023-06-26T11:57:55.616Z,5.80
2023-06-26T12:00:22.714Z,7.75
2023-06-26T12:02:50.790Z,7.18
2023-06-26T12:05:18.506Z,8.13
2023-06-26T12:07:48.298Z,6.07
2023-06-26T12:10:16.426Z,4.90
2023-06-26T12:12:43.727Z,11.27
2023-06-26T12:15:13.807Z,7.03
2023-06-26T12:17:40.902Z,6.72
2023-06-26T12:20:22.656Z,8.40
2023-06-26T12:22:50.026Z,6.90
2023-06-26T12:25:22.046Z,5.90
2023-06-26T12:27:48.811Z,7.65
2023-06-26T12:32:47.865Z,5.78
2023-06-26T12:35:14.860Z,6.80
2023-06-26T12:37:44.913Z,6.25
2023-06-26T12:40:20.254Z,4.93
2023-06-26T12:42:47.032Z,4.80
2023-06-26T12:48:14.219Z,8.45
2023-06-26T12:50:47.676Z,6.28
2023-06-26T12:53:14.717Z,5.55
2023-06-26T12:55:42.098Z,8.90
2023-06-26T13:00:38.680Z,6.22
2023-06-26T13:03:05.784Z,10.82
2023-06-26T13:05:32.960Z,5.47
2023-06-26T13:10:30.007Z,6.13
2023-06-26T13:12:56.761Z,6.75
2023-06-26T13:17:50.248Z,9.48
2023-06-26T13:20:17.005Z,6.60
2023-06-26T13:25:12.537Z,5.28
2023-06-26T13:27:39.447Z,5.75
2023-06-26T13:30:06.963Z,5.40
2023-06-26T13:32:33.900Z,7.85
2023-06-26T13:35:00.642Z,6.40
2023-06-26T13:39:54.075Z,6.25
2023-06-26T13:44:59.896Z,7.60
2023-06-26T13:47:29.919Z,6.70
2023-06-26T13:49:56.651Z,6.70
2023-06-26T13:52:23.389Z,6.35
2023-06-26T13:57:16.992Z,6.90
2023-06-26T14:02:12.959Z,6.18
2023-06-26T14:04:39.869Z,8.88
2023-06-26T14:09:34.081Z,8.55
2023-06-26T14:14:27.557Z,7.78
2023-06-26T14:19:21.243Z,6.30
2023-06-26T14:21:47.953Z,7.75
2023-06-26T14:26:41.338Z,5.90
2023-06-26T14:29:08.099Z,7.35
2023-06-26T14:31:34.903Z,8.60
2023-06-26T14:34:03.844Z,8.45
2023-06-26T14:36:32.982Z,6.70
2023-06-26T14:39:00.599Z,11.50
2023-06-26T14:41:28.810Z,6.70
2023-06-26T14:43:57.532Z,7.45
2023-06-26T14:46:24.860Z,9.38
2023-06-26T14:48:52.492Z,7.18
2023-06-26T14:51:21.711Z,7.63
2023-06-26T14:53:48.766Z,7.45
2023-06-26T14:56:15.496Z,6.82
2023-06-26T15:01:09.919Z,10.40
2023-06-26T15:03:36.818Z,7.60
2023-06-26T15:06:03.740Z,7.75
2023-06-26T15:08:30.519Z,8.35
2023-06-26T15:10:57.227Z,9.30
2023-06-26T15:15:50.740Z,8.80
2023-06-26T15:18:17.539Z,7.47
2023-06-26T15:23:11.063Z,7.22
2023-06-26T15:25:37.842Z,11.40
2023-06-26T15:30:32.124Z,8.82
2023-06-26T15:32:59.007Z,12.52
2023-06-26T15:35:26.002Z,11.25
2023-06-26T15:37:52.790Z,12.25
2023-06-26T15:42:47.530Z,7.28
2023-06-26T15:45:15.058Z,7.75
2023-06-26T15:47:42.082Z,8.70
2023-06-26T15:50:09.640Z,9.50
2023-06-26T15:52:36.869Z,9.27
2023-06-26T15:55:03.900Z,8.90
2023-06-26T15:57:32.969Z,10.82
2023-06-26T16:00:00.945Z,8.77
2023-06-26T16:02:27.749Z,8.02
2023-06-26T16:04:54.509Z,8.95
2023-06-26T16:07:23.900Z,11.60
2023-06-26T16:09:51.808Z,8.13
2023-06-26T16:12:18.585Z,10.07
2023-06-26T16:14:45.460Z,7.68
2023-06-26T16:17:12.307Z,11.02
2023-06-26T16:19:39.022Z,8.85
2023-06-26T16:22:07.252Z,9.43
2023-06-26T16:24:34.021Z,8.63
2023-06-26T16:27:00.781Z,11.32
2023-06-26T16:31:57.664Z,8.10
2023-06-26T16:34:24.392Z,9.60
2023-06-26T16:39:21.057Z,8.57
2023-06-26T16:41:54.694Z,9.85
2023-06-26T16:44:22.240Z,7.93
2023-06-26T16:46:49.431Z,7.38
2023-06-26T16:49:16.194Z,9.15
2023-06-26T16:51:42.920Z,8.05
2023-06-26T16:54:10.961Z,8.93
2023-06-26T16:56:37.748Z,8.02
2023-06-26T16:59:04.510Z,10.65
2023-06-26T17:01:31.366Z,8.82
2023-06-26T17:03:58.550Z,8.45
2023-06-26T17:06:25.332Z,8.85
2023-06-26T17:08:52.086Z,10.25
2023-06-26T17:11:18.851Z,8.95
2023-06-26T17:13:46.665Z,14.43
2023-06-26T17:16:13.435Z,11.13
2023-06-26T17:18:40.146Z,8.95
2023-06-26T17:21:06.919Z,11.35
2023-06-26T17:23:33.875Z,8.65
2023-06-26T17:26:03.481Z,8.13
2023-06-26T17:28:32.113Z,10.50
2023-06-26T17:30:58.875Z,9.13
2023-06-26T17:33:25.620Z,9.05
2023-06-26T17:38:19.001Z,9.85
2023-06-26T17:40:45.749Z,7.57
2023-06-26T17:45:39.173Z,9.40
2023-06-26T17:48:06.428Z,10.20
2023-06-26T17:50:33.233Z,8.23
2023-06-26T17:53:00.241Z,11.52
2023-06-26T17:55:27.370Z,9.23
2023-06-26T17:57:54.097Z,8.93
2023-06-26T18:00:21.047Z,9.35
2023-06-26T18:05:15.508Z,11.07
2023-06-26T18:08:01.691Z,13.00
2023-06-26T18:10:29.048Z,10.77
2023-06-26T18:12:57.249Z,8.75
2023-06-26T18:15:24.113Z,9.82
2023-06-26T18:17:51.150Z,9.10
2023-06-26T18:20:17.985Z,8.73
2023-06-26T18:22:44.737Z,8.50
2023-06-26T18:25:11.540Z,10.48
2023-06-26T18:27:40.859Z,8.80
2023-06-26T18:30:08.224Z,8.38
2023-06-26T18:32:34.982Z,9.20
2023-06-26T18:35:01.776Z,9.70
2023-06-26T18:37:29.129Z,11.23
2023-06-26T18:39:55.932Z,9.25
2023-06-26T18:42:22.643Z,8.65
2023-06-26T18:44:50.384Z,8.23
2023-06-26T18:47:17.119Z,10.43
2023-06-26T18:49:44.024Z,12.30
2023-06-26T18:52:10.756Z,11.25
2023-06-26T18:54:37.485Z,12.73
2023-06-26T18:57:04.470Z,8.10
2023-06-26T19:01:57.877Z,11.45
2023-06-26T19:04:25.809Z,12.48
2023-06-26T19:06:53.779Z,10.02
2023-06-26T19:09:21.483Z,9.75
2023-06-26T19:12:54.644Z,12.60
2023-06-26T19:15:21.529Z,9.40
2023-06-26T19:17:48.331Z,11.52
2023-06-26T19:20:15.458Z,10.85
2023-06-26T19:25:09.489Z,12.20
2023-06-26T19:27:36.294Z,10.07
2023-06-26T19:30:03.433Z,9.82
2023-06-26T19:32:30.242Z,11.35
2023-06-26T19:34:56.999Z,10.35
2023-06-26T19:37:23.718Z,8.48
2023-06-26T19:39:50.441Z,14.02
2023-06-26T19:42:17.168Z,9.93
2023-06-26T19:44:44.104Z,9.88
2023-06-26T19:47:10.866Z,11.27
2023-06-26T19:49:37.861Z,10.30
2023-06-26T19:54:31.534Z,11.98
2023-06-26T19:56:58.313Z,9.30
2023-06-26T19:59:26.026Z,9.32
2023-06-26T20:01:52.846Z,9.23
2023-06-26T20:04:19.694Z,7.70
2023-06-26T20:06:48.277Z,11.15
2023-06-26T20:09:15.073Z,10.85
2023-06-26T20:11:41.842Z,12.45
2023-06-26T20:14:08.555Z,9.55
2023-06-26T20:16:35.277Z,10.00
2023-06-26T20:19:02.030Z,10.20
2023-06-26T20:21:28.724Z,10.85
2023-06-26T20:23:55.421Z,9.63
2023-06-26T20:26:22.194Z,13.10
2023-06-26T20:28:49.560Z,11.27
2023-06-26T20:31:16.372Z,12.60
2023-06-26T20:33:43.124Z,12.00
2023-06-26T20:36:10.169Z,13.90
2023-06-26T20:38:36.885Z,11.15
2023-06-26T20:41:05.856Z,12.75
2023-06-26T20:43:32.803Z,10.23
2023-06-26T20:45:59.918Z,9.60
2023-06-26T20:50:53.841Z,13.60
2023-06-26T20:53:21.024Z,12.90
2023-06-26T20:55:49.314Z,8.68
2023-06-26T20:58:16.152Z,10.05
2023-06-26T21:00:42.958Z,11.75
2023-06-26T21:03:10.090Z,11.80
2023-06-26T21:05:37.037Z,12.57
2023-06-26T21:08:03.929Z,13.13
2023-06-26T21:10:30.659Z,10.57
2023-06-26T21:12:57.390Z,12.60
2023-06-26T21:15:24.142Z,10.20
2023-06-26T21:17:50.876Z,10.57
2023-06-26T21:20:17.938Z,9.93
2023-06-26T21:22:44.679Z,11.35
2023-06-26T21:25:11.766Z,10.88
2023-06-26T21:30:08.614Z,8.95
2023-06-26T21:32:35.402Z,11.43
2023-06-26T21:35:02.170Z,11.23
2023-06-26T21:37:28.888Z,8.10
2023-06-26T21:39:55.610Z,9.75
2023-06-26T21:42:22.425Z,9.45
2023-06-26T21:44:49.172Z,13.45
2023-06-26T21:47:16.035Z,10.90
2023-06-26T21:49:42.843Z,10.02
2023-06-26T21:52:09.615Z,10.70
2023-06-26T21:54:36.378Z,8.25
2023-06-26T21:57:03.648Z,7.97
2023-06-26T21:59:30.346Z,9.15
2023-06-26T22:01:57.169Z,8.82
2023-06-26T22:04:23.910Z,8.70
2023-06-26T22:06:52.257Z,10.27
2023-06-26T22:09:20.961Z,10.43
2023-06-26T22:11:47.737Z,8.13
2023-06-26T22:14:14.445Z,9.13
2023-06-26T22:16:41.190Z,10.38
2023-06-26T22:19:09.764Z,10.00
2023-06-26T22:21:36.955Z,10.18
2023-06-26T22:24:03.791Z,6.78
2023-06-26T22:26:30.558Z,9.23
2023-06-26T22:28:57.257Z,8.50
2023-06-26T22:31:24.007Z,11.43
2023-06-26T22:33:50.776Z,13.98
2023-06-26T22:36:17.588Z,8.98
2023-06-26T22:38:44.329Z,15.20
2023-06-26T22:41:11.069Z,13.90
2023-06-26T22:43:37.807Z,10.18
2023-06-26T22:46:04.520Z,9.68
2023-06-26T22:48:31.233Z,11.25
2023-06-26T22:50:57.964Z,11.60
2023-06-26T22:53:25.659Z,8.10
2023-06-26T22:55:52.572Z,12.32
2023-06-26T22:58:19.426Z,8.95
2023-06-26T23:00:46.132Z,8.88
2023-06-26T23:03:13.177Z,10.05
2023-06-26T23:05:41.678Z,9.38
2023-06-26T23:08:08.694Z,11.10
2023-06-26T23:13:02.360Z,8.77
2023-06-26T23:15:29.108Z,11.50
2023-06-26T23:17:55.899Z,9.10
2023-06-26T23:20:22.651Z,8.80
2023-06-26T23:22:49.378Z,8.98
2023-06-26T23:25:16.216Z,7.20
2023-06-26T23:27:43.025Z,10.27
2023-06-26T23:30:14.368Z,9.07
2023-06-26T23:32:41.522Z,11.68
2023-06-26T23:35:10.895Z,9.02
2023-06-26T23:37:38.666Z,9.25
2023-06-26T23:40:10.229Z,9.43
2023-06-26T23:42:40.931Z,8.10
2023-06-26T23:45:08.703Z,7.88
2023-06-26T23:47:35.586Z,8.32
2023-06-26T23:50:02.466Z,8.35
2023-06-26T23:52:29.277Z,12.55
2023-06-26T23:54:56.041Z,8.13
2023-06-26T23:57:22.809Z,9.02
2023-06-26T23:59:49.519Z,8.57
